createdAt,value
2023-04-19T00:01:34.232Z,102004.00
2023-04-19T00:04:03.637Z,102009.19
2023-04-19T00:06:31.830Z,102011.81
2023-04-19T00:08:59.033Z,101997.88
2023-04-19T00:11:26.267Z,102005.63
2023-04-19T00:13:53.440Z,102010.84
2023-04-19T00:16:21.401Z,102001.25
2023-04-19T00:18:48.578Z,102005.59
2023-04-19T00:21:15.809Z,101997.69
2023-04-19T00:23:42.950Z,101998.59
2023-04-19T00:26:11.543Z,101987.19
2023-04-19T00:28:38.733Z,101995.03
2023-04-19T00:31:05.927Z,101987.25
2023-04-19T00:33:33.554Z,101989.00
2023-04-19T00:36:00.732Z,101995.09
2023-04-19T00:38:27.928Z,101996.84
2023-04-19T00:40:55.605Z,101995.97
2023-04-19T00:43:22.850Z,101994.31
2023-04-19T00:45:50.122Z,101994.41
2023-04-19T00:48:17.432Z,101996.19
2023-04-19T00:50:44.982Z,101985.78
2023-04-19T00:53:12.299Z,101993.63
2023-04-19T00:55:39.802Z,101986.78
2023-04-19T00:58:08.381Z,101993.75
2023-04-19T01:00:36.290Z,101992.03
2023-04-19T01:03:04.226Z,101988.63
2023-04-19T01:05:31.678Z,101983.44
2023-04-19T01:07:59.033Z,101989.56
2023-04-19T01:10:26.242Z,101988.75
2023-04-19T01:12:53.383Z,101987.06
2023-04-19T01:15:21.004Z,101991.44
2023-04-19T01:17:48.327Z,101992.31
2023-04-19T01:20:15.614Z,101989.78
2023-04-19T01:22:42.820Z,101991.59
2023-04-19T01:25:10.474Z,101986.50
2023-04-19T01:27:37.629Z,101980.50
2023-04-19T01:30:05.428Z,101986.69
2023-04-19T01:32:32.778Z,101979.84
2023-04-19T01:34:59.912Z,101982.53
2023-04-19T01:37:27.663Z,101979.19
2023-04-19T01:39:54.850Z,101981.00
2023-04-19T01:42:22.108Z,101977.56
2023-04-19T01:44:49.339Z,101973.28
2023-04-19T01:47:16.589Z,101975.94
2023-04-19T01:49:43.832Z,101972.56
2023-04-19T01:52:11.424Z,101970.91
2023-04-19T01:54:38.544Z,101971.84
2023-04-19T01:57:05.697Z,101965.88
2023-04-19T01:59:32.911Z,101970.28
2023-04-19T02:02:00.211Z,101962.50
2023-04-19T02:04:27.748Z,101968.69
2023-04-19T02:06:54.910Z,101960.84
2023-04-19T02:09:22.026Z,101954.81
2023-04-19T02:11:49.326Z,101961.84
2023-04-19T02:14:16.939Z,101958.38
2023-04-19T02:16:44.454Z,101953.19
2023-04-19T02:19:11.677Z,101952.38
2023-04-19T02:21:38.828Z,101953.31
2023-04-19T02:24:06.277Z,101957.69
2023-04-19T02:26:33.491Z,101952.50
2023-04-19T02:29:00.837Z,101955.16
2023-04-19T02:31:28.156Z,101952.56
2023-04-19T02:33:55.507Z,101950.88
2023-04-19T02:36:22.692Z,101944.81
2023-04-19T02:38:49.923Z,101946.56
2023-04-19T02:41:17.120Z,101937.91
2023-04-19T02:43:44.324Z,101935.34
2023-04-19T02:46:11.485Z,101936.25
2023-04-19T02:48:38.953Z,101938.88
2023-04-19T02:51:06.152Z,101937.16
2023-04-19T02:53:33.830Z,101925.88
2023-04-19T02:56:01.439Z,101925.88
2023-04-19T02:58:28.831Z,101927.63
2023-04-19T03:00:56.199Z,101922.47
2023-04-19T03:03:23.442Z,101920.78
2023-04-19T03:05:50.613Z,101922.56
2023-04-19T03:08:17.879Z,101920.88
2023-04-19T03:10:44.990Z,101919.19
2023-04-19T03:13:12.164Z,101909.69
2023-04-19T03:15:39.327Z,101914.91
2023-04-19T03:18:06.466Z,101914.97
2023-04-19T03:20:34.397Z,101902.84
2023-04-19T03:23:02.442Z,101902.88
2023-04-19T03:25:29.709Z,101915.91
2023-04-19T03:27:57.109Z,101902.06
2023-04-19T03:30:24.309Z,101902.09
2023-04-19T03:32:52.938Z,101894.31
2023-04-19T03:35:21.182Z,101898.69
2023-04-19T03:37:48.372Z,101889.19
2023-04-19T03:40:15.642Z,101896.13
2023-04-19T03:42:42.796Z,101887.47
2023-04-19T03:45:10.394Z,101886.63
2023-04-19T03:47:37.610Z,101889.25
2023-04-19T03:50:05.262Z,101891.84
2023-04-19T03:52:32.567Z,101893.63
2023-04-19T03:54:59.737Z,101882.34
2023-04-19T03:57:27.699Z,101883.22
2023-04-19T03:59:54.824Z,101884.97
2023-04-19T04:02:22.173Z,101879.81
2023-04-19T04:04:56.069Z,101876.34
2023-04-19T04:07:24.605Z,101869.44
2023-04-19T04:09:51.897Z,101872.91
2023-04-19T04:12:19.159Z,101873.78
2023-04-19T04:14:47.321Z,101872.09
2023-04-19T04:17:14.426Z,101875.53
2023-04-19T04:19:41.829Z,101863.41
2023-04-19T04:22:08.983Z,101863.47
2023-04-19T04:24:41.380Z,101859.09
2023-04-19T04:27:12.267Z,101859.97
2023-04-19T04:29:39.987Z,101866.91
2023-04-19T04:32:08.724Z,101866.00
2023-04-19T04:34:37.236Z,101854.69
2023-04-19T04:37:04.711Z,101855.56
2023-04-19T04:39:35.070Z,101865.13
2023-04-19T04:42:03.208Z,101858.13
2023-04-19T04:44:30.408Z,101859.84
2023-04-19T04:46:57.624Z,101858.94
2023-04-19T04:49:24.796Z,101848.53
2023-04-19T04:51:51.909Z,101847.59
2023-04-19T04:54:19.109Z,101845.88
2023-04-19T04:56:46.283Z,101850.16
2023-04-19T04:59:13.514Z,101841.41
2023-04-19T05:01:41.070Z,101837.94
2023-04-19T05:04:08.246Z,101838.75
2023-04-19T05:06:35.427Z,101839.63
2023-04-19T05:09:03.281Z,101843.94
2023-04-19T05:11:30.503Z,101838.69
2023-04-19T05:13:57.723Z,101825.50
2023-04-19T05:16:27.589Z,101828.09
2023-04-19T05:18:54.795Z,101824.59
2023-04-19T05:21:22.447Z,101823.63
2023-04-19T05:23:49.626Z,101827.94
2023-04-19T05:26:16.958Z,101831.31
2023-04-19T05:28:45.465Z,101822.56
2023-04-19T05:31:12.689Z,101822.47
2023-04-19T05:33:39.975Z,101828.44
2023-04-19T05:36:07.652Z,101816.19
2023-04-19T05:38:34.846Z,101823.91
2023-04-19T05:41:03.586Z,101812.53
2023-04-19T05:43:31.105Z,101808.94
2023-04-19T05:45:58.353Z,101808.78
2023-04-19T05:48:25.690Z,101816.53
2023-04-19T05:50:56.321Z,101815.50
2023-04-19T05:53:23.805Z,101811.88
2023-04-19T05:55:52.131Z,101810.91
2023-04-19T05:58:19.313Z,101808.19
2023-04-19T06:00:46.777Z,101819.28
2023-04-19T06:03:14.407Z,101807.84
2023-04-19T06:05:41.941Z,101816.47
2023-04-19T06:08:09.572Z,101813.59
2023-04-19T06:10:52.678Z,101797.78
2023-04-19T06:13:23.258Z,101807.22
2023-04-19T06:15:50.533Z,101804.41
2023-04-19T06:18:19.178Z,101807.78
2023-04-19T06:20:47.185Z,101807.66
2023-04-19T06:23:14.961Z,101812.69
2023-04-19T06:25:42.627Z,101807.09
2023-04-19T06:28:11.113Z,101815.59
2023-04-19T06:30:38.249Z,101815.41
2023-04-19T06:33:05.366Z,101803.03
2023-04-19T06:35:32.798Z,101799.28
2023-04-19T06:38:00.012Z,101812.09
2023-04-19T06:40:29.321Z,101804.03
2023-04-19T06:42:56.624Z,101804.66
2023-04-19T06:45:23.853Z,101807.16
2023-04-19T06:47:51.366Z,101803.41
2023-04-19T06:50:18.719Z,101789.13
2023-04-19T06:52:45.854Z,101799.13
2023-04-19T06:55:13.183Z,101785.75
2023-04-19T06:57:40.772Z,101781.84
2023-04-19T07:00:08.666Z,101775.50
2023-04-19T07:02:36.013Z,101769.22
2023-04-19T07:05:03.856Z,101762.81
2023-04-19T07:07:31.009Z,101768.53
2023-04-19T07:09:58.169Z,101767.22
2023-04-19T07:12:25.493Z,101762.72
2023-04-19T07:14:56.426Z,101752.03
2023-04-19T07:17:24.148Z,101757.91
2023-04-19T07:19:51.362Z,101749.84
2023-04-19T07:22:18.572Z,101754.69
2023-04-19T07:24:45.807Z,101748.13
2023-04-19T07:27:14.332Z,101749.50
2023-04-19T07:29:41.476Z,101751.63
2023-04-19T07:32:08.813Z,101741.47
2023-04-19T07:34:38.099Z,101732.50
2023-04-19T07:37:05.397Z,101735.78
2023-04-19T07:39:32.961Z,101727.69
2023-04-19T07:42:02.261Z,101723.91
2023-04-19T07:44:29.513Z,101719.00
2023-04-19T07:47:21.586Z,101718.41
2023-04-19T07:49:53.448Z,101705.09
2023-04-19T07:52:20.698Z,101705.91
2023-04-19T07:55:07.119Z,101703.78
2023-04-19T07:57:35.188Z,101710.41
2023-04-19T08:00:02.435Z,101697.19
2023-04-19T08:02:29.797Z,101697.69
2023-04-19T08:04:58.039Z,101699.06
2023-04-19T08:07:26.220Z,101701.97
2023-04-19T08:09:53.539Z,101692.63
2023-04-19T08:15:04.706Z,101689.25
2023-04-19T08:17:42.361Z,101688.63
2023-04-19T08:20:11.575Z,101675.78
2023-04-19T08:22:39.831Z,101682.84
2023-04-19T08:25:08.147Z,101679.47
2023-04-19T08:27:35.957Z,101686.91
2023-04-19T08:30:04.267Z,101686.56
2023-04-19T08:32:31.692Z,101678.09
2023-04-19T08:35:00.987Z,101682.56
2023-04-19T08:37:28.139Z,101683.50
2023-04-19T08:39:55.373Z,101684.94
2023-04-19T08:42:33.084Z,101683.34
2023-04-19T08:47:51.853Z,101685.72
2023-04-19T08:50:33.413Z,101676.97
2023-04-19T08:53:20.788Z,101665.19
2023-04-19T08:58:36.514Z,101666.09
2023-04-19T09:01:12.726Z,101658.59
2023-04-19T09:04:00.563Z,101657.25
2023-04-19T09:06:38.843Z,101661.00
2023-04-19T09:09:33.383Z,101650.38
2023-04-19T09:12:04.069Z,101647.75
2023-04-19T09:14:31.259Z,101644.91
2023-04-19T09:17:16.755Z,101645.56
2023-04-19T09:19:48.298Z,101632.94
2023-04-19T09:22:15.920Z,101630.13
2023-04-19T09:27:16.771Z,101619.88
2023-04-19T09:29:53.096Z,101618.09
2023-04-19T09:32:20.374Z,101607.84
2023-04-19T09:34:58.911Z,101612.00
2023-04-19T09:37:51.347Z,101615.50
2023-04-19T09:40:24.235Z,101618.53
2023-04-19T09:45:29.857Z,101612.34
2023-04-19T09:48:05.480Z,101616.78
2023-04-19T09:50:34.153Z,101609.13
2023-04-19T09:53:10.406Z,101604.50
2023-04-19T09:55:52.689Z,101601.38
2023-04-19T09:58:29.355Z,101604.06
2023-04-19T10:01:14.317Z,101595.72
2023-04-19T10:03:46.430Z,101593.84
2023-04-19T10:08:50.492Z,101590.47
2023-04-19T10:11:19.150Z,101595.22
2023-04-19T10:13:47.392Z,101592.63
2023-04-19T10:16:19.521Z,101584.00
2023-04-19T10:18:50.024Z,101584.38
2023-04-19T10:21:18.222Z,101577.28
2023-04-19T10:23:45.658Z,101581.94
2023-04-19T10:26:12.866Z,101574.94
2023-04-19T10:28:41.899Z,101572.53
2023-04-19T10:31:13.258Z,101571.22
2023-04-19T10:33:41.378Z,101582.56
2023-04-19T10:36:09.824Z,101581.34
2023-04-19T10:38:48.541Z,101572.03
2023-04-19T10:41:17.922Z,101572.84
2023-04-19T10:44:36.205Z,101574.34
2023-04-19T10:47:05.684Z,101569.31
2023-04-19T10:49:44.792Z,101557.84
2023-04-19T10:52:29.564Z,101568.75
2023-04-19T10:54:56.989Z,101571.50
2023-04-19T10:57:25.337Z,101562.16
2023-04-19T11:00:21.880Z,101565.84
2023-04-19T11:02:49.210Z,101564.38
2023-04-19T11:05:18.445Z,101563.72
2023-04-19T11:07:47.027Z,101555.47
2023-04-19T11:10:28.255Z,101559.19
2023-04-19T11:12:55.828Z,101559.53
2023-04-19T11:15:24.300Z,101539.34
2023-04-19T11:18:01.005Z,101538.91
2023-04-19T11:20:32.077Z,101543.59
2023-04-19T11:23:01.005Z,101536.63
2023-04-19T11:25:31.483Z,101539.13
2023-04-19T11:28:00.475Z,101534.97
2023-04-19T11:30:31.053Z,101530.31
2023-04-19T11:32:58.458Z,101525.09
2023-04-19T11:35:30.312Z,101534.38
2023-04-19T11:37:58.859Z,101520.78
2023-04-19T11:40:26.498Z,101521.47
2023-04-19T11:43:00.516Z,101528.94
2023-04-19T11:45:39.702Z,101526.78
2023-04-19T11:48:14.332Z,101525.72
2023-04-19T11:50:43.176Z,101520.34
2023-04-19T11:53:14.858Z,101518.38
2023-04-19T11:55:45.316Z,101522.84
2023-04-19T11:58:30.113Z,101525.19
2023-04-19T12:01:06.309Z,101511.44
2023-04-19T12:03:35.004Z,101500.16
2023-04-19T12:06:04.129Z,101506.00
2023-04-19T12:08:36.201Z,101497.56
2023-04-19T12:11:04.478Z,101496.97
2023-04-19T12:13:32.754Z,101500.00
2023-04-19T12:16:00.390Z,101495.06
2023-04-19T12:18:28.015Z,101495.66
2023-04-19T12:20:55.388Z,101490.22
2023-04-19T12:23:22.657Z,101493.66
2023-04-19T12:25:50.101Z,101481.56
2023-04-19T12:28:17.490Z,101477.31
2023-04-19T12:30:44.832Z,101477.50
2023-04-19T12:33:12.268Z,101469.47
2023-04-19T12:35:39.765Z,101468.75
2023-04-19T12:38:07.054Z,101463.31
2023-04-19T12:40:34.322Z,101470.75
2023-04-19T12:43:02.329Z,101463.31
2023-04-19T12:45:29.480Z,101462.34
2023-04-19T12:47:57.211Z,101451.75
2023-04-19T12:50:24.559Z,101445.00
2023-04-19T12:52:53.637Z,101453.69
2023-04-19T12:55:20.920Z,101436.84
2023-04-19T12:57:48.134Z,101438.97
2023-04-19T13:00:15.658Z,101439.09
2023-04-19T13:02:43.301Z,101441.03
2023-04-19T13:05:12.891Z,101428.19
2023-04-19T13:07:40.365Z,101432.53
2023-04-19T13:10:08.027Z,101427.66
2023-04-19T13:12:36.217Z,101423.75
2023-04-19T13:15:06.642Z,101405.38
2023-04-19T13:17:36.106Z,101397.91
2023-04-19T13:20:04.035Z,101406.03
2023-04-19T13:22:31.333Z,101399.25
2023-04-19T13:24:58.674Z,101389.53
2023-04-19T13:27:26.224Z,101390.16
2023-04-19T13:29:56.768Z,101392.94
2023-04-19T13:32:24.126Z,101396.09
2023-04-19T13:34:51.414Z,101391.34
2023-04-19T13:37:18.769Z,101392.66
2023-04-19T13:39:46.211Z,101392.69
2023-04-19T13:42:14.235Z,101396.22
2023-04-19T13:44:41.522Z,101393.84
2023-04-19T13:47:08.789Z,101385.78
2023-04-19T13:52:03.231Z,101392.72
2023-04-19T13:54:30.509Z,101397.34
2023-04-19T13:56:58.046Z,101392.25
2023-04-19T13:59:26.144Z,101393.06
2023-04-19T14:01:55.822Z,101395.78
2023-04-19T14:04:24.566Z,101398.72
2023-04-19T14:06:52.329Z,101400.22
2023-04-19T14:09:19.678Z,101397.00
2023-04-19T14:11:48.283Z,101384.47
2023-04-19T14:14:16.144Z,101378.47
2023-04-19T14:16:44.081Z,101382.59
2023-04-19T14:19:11.439Z,101377.81
2023-04-19T14:21:38.643Z,101364.34
2023-04-19T14:24:06.161Z,101356.34
2023-04-19T14:26:33.432Z,101350.72
2023-04-19T14:29:00.964Z,101352.91
2023-04-19T14:31:28.737Z,101348.06
2023-04-19T14:33:56.706Z,101342.50
2023-04-19T14:36:23.894Z,101347.75
2023-04-19T14:38:51.940Z,101350.91
2023-04-19T14:41:19.178Z,101346.03
2023-04-19T14:43:46.929Z,101344.09
2023-04-19T14:46:14.283Z,101342.97
2023-04-19T14:48:41.619Z,101336.50
2023-04-19T14:51:09.026Z,101337.84
2023-04-19T14:53:36.207Z,101339.19
2023-04-19T14:56:05.714Z,101335.59
2023-04-19T14:58:33.940Z,101338.69
2023-04-19T15:01:10.949Z,101338.84
2023-04-19T15:03:38.392Z,101347.00
2023-04-19T15:06:06.000Z,101350.97
2023-04-19T15:08:33.413Z,101361.22
2023-04-19T15:11:00.630Z,101361.16
2023-04-19T15:13:29.665Z,101361.69
2023-04-19T15:15:57.415Z,101370.91
2023-04-19T15:18:24.675Z,101378.47
2023-04-19T15:20:51.916Z,101388.78
2023-04-19T15:23:24.380Z,101378.97
2023-04-19T15:25:52.203Z,101384.31
2023-04-19T15:28:19.643Z,101398.78
2023-04-19T15:30:57.719Z,101411.13
2023-04-19T15:33:25.340Z,101414.75
2023-04-19T15:35:53.443Z,101411.28
2023-04-19T15:38:25.916Z,101405.22
2023-04-19T15:40:54.766Z,101409.16
2023-04-19T15:43:22.868Z,101405.50
2023-04-19T15:45:50.428Z,101404.56
2023-04-19T15:48:18.037Z,101404.53
2023-04-19T15:50:45.281Z,101396.56
2023-04-19T15:53:12.750Z,101395.50
2023-04-19T15:55:41.424Z,101391.84
2023-04-19T15:58:08.908Z,101393.97
2023-04-19T16:00:36.159Z,101392.16
2023-04-19T16:03:04.415Z,101389.69
2023-04-19T16:05:31.792Z,101385.50
2023-04-19T16:08:03.938Z,101381.28
2023-04-19T16:10:31.414Z,101378.88
2023-04-19T16:12:58.848Z,101368.75
2023-04-19T16:15:26.235Z,101371.31
2023-04-19T16:17:53.505Z,101361.75
2023-04-19T16:20:20.777Z,101357.34
2023-04-19T16:22:48.396Z,101352.06
2023-04-19T16:25:16.507Z,101353.00
2023-04-19T16:27:45.799Z,101348.78
2023-04-19T16:30:14.195Z,101342.81
2023-04-19T16:32:41.767Z,101346.44
2023-04-19T16:35:09.934Z,101344.84
2023-04-19T16:37:37.353Z,101341.22
2023-04-19T16:40:09.890Z,101347.22
2023-04-19T16:42:38.570Z,101334.91
2023-04-19T16:45:10.151Z,101330.44
2023-04-19T16:47:38.791Z,101332.28
2023-04-19T16:50:06.624Z,101328.88
2023-04-19T16:52:35.649Z,101328.09
2023-04-19T16:55:06.182Z,101332.47
2023-04-19T16:57:33.633Z,101326.47
2023-04-19T17:00:01.022Z,101327.53
2023-04-19T17:02:28.454Z,101330.38
2023-04-19T17:04:56.581Z,101327.81
2023-04-19T17:07:24.111Z,101331.22
2023-04-19T17:09:51.560Z,101319.84
2023-04-19T17:12:18.984Z,101327.69
2023-04-19T17:14:46.311Z,101325.16
2023-04-19T17:17:13.515Z,101323.59
2023-04-19T17:19:40.772Z,101325.47
2023-04-19T17:22:07.969Z,101322.94
2023-04-19T17:24:35.192Z,101323.72
2023-04-19T17:27:02.596Z,101314.91
2023-04-19T17:29:30.181Z,101317.56
2023-04-19T17:31:57.603Z,101319.28
2023-04-19T17:34:25.321Z,101320.28
2023-04-19T17:36:52.633Z,101322.81
2023-04-19T17:39:22.088Z,101320.28
2023-04-19T17:41:49.286Z,101331.72
2023-04-19T17:44:21.301Z,101327.47
2023-04-19T17:46:49.567Z,101319.63
2023-04-19T17:49:19.032Z,101335.38
2023-04-19T17:51:47.422Z,101329.22
2023-04-19T17:54:15.914Z,101329.97
2023-04-19T17:56:43.964Z,101333.44
2023-04-19T17:59:12.712Z,101336.03
2023-04-19T18:05:20.531Z,101333.53
2023-04-19T18:07:47.795Z,101330.94
2023-04-19T18:10:15.257Z,101336.19
2023-04-19T18:12:45.065Z,101332.63
2023-04-19T18:15:21.401Z,101332.63
2023-04-19T18:17:49.133Z,101335.25
2023-04-19T18:20:18.161Z,101345.75
2023-04-19T18:22:50.417Z,101341.34
2023-04-19T18:25:18.509Z,101338.72
2023-04-19T18:27:50.457Z,101343.03
2023-04-19T18:30:21.436Z,101347.34
2023-04-19T18:32:50.724Z,101339.44
2023-04-19T18:35:18.395Z,101337.66
2023-04-19T18:37:46.751Z,101341.91
2023-04-19T18:40:14.216Z,101341.91
2023-04-19T18:42:44.400Z,101346.25
2023-04-19T18:45:12.119Z,101347.97
2023-04-19T18:47:39.320Z,101342.81
2023-04-19T18:50:08.960Z,101345.34
2023-04-19T18:52:36.745Z,101354.97
2023-04-19T18:55:08.562Z,101351.44
2023-04-19T18:57:36.105Z,101354.81
2023-04-19T19:00:11.453Z,101357.31
2023-04-19T19:02:41.016Z,101353.81
2023-04-19T19:05:09.452Z,101346.72
2023-04-19T19:07:44.194Z,101363.25
2023-04-19T19:10:19.155Z,101351.94
2023-04-19T19:12:49.593Z,101356.34
2023-04-19T19:15:20.474Z,101357.19
2023-04-19T19:17:51.320Z,101359.84
2023-04-19T19:20:22.355Z,101359.84
2023-04-19T19:22:51.263Z,101360.66
2023-04-19T19:25:19.807Z,101365.00
2023-04-19T19:28:06.114Z,101369.31
2023-04-19T19:30:39.721Z,101364.09
2023-04-19T19:33:07.725Z,101363.19
2023-04-19T19:35:35.052Z,101365.78
2023-04-19T19:38:05.197Z,101362.34
2023-04-19T19:40:33.121Z,101362.25
2023-04-19T19:43:06.546Z,101363.09
2023-04-19T19:45:34.097Z,101373.47
2023-04-19T19:48:02.400Z,101369.00
2023-04-19T19:53:00.796Z,101372.56
2023-04-19T19:55:28.827Z,101380.38
2023-04-19T20:02:57.273Z,101382.25
2023-04-19T20:05:26.483Z,101385.69
2023-04-19T20:08:05.825Z,101384.81
2023-04-19T20:10:33.414Z,101383.97
2023-04-19T20:13:01.601Z,101382.22
2023-04-19T20:15:30.441Z,101390.06
2023-04-19T20:17:57.976Z,101388.28
2023-04-19T20:20:25.335Z,101386.56
2023-04-19T20:22:52.571Z,101386.44
2023-04-19T20:25:19.924Z,101386.44
2023-04-19T20:27:47.101Z,101379.44
2023-04-19T20:30:14.573Z,101385.53
2023-04-19T20:32:44.915Z,101387.28
2023-04-19T20:35:12.550Z,101386.38
2023-04-19T20:37:40.319Z,101380.16
2023-04-19T20:40:13.935Z,101375.81
2023-04-19T20:42:41.695Z,101373.19
2023-04-19T20:45:14.261Z,101374.09
2023-04-19T20:47:42.953Z,101380.22
2023-04-19T20:50:10.910Z,101378.56
2023-04-19T20:52:38.341Z,101379.50
2023-04-19T20:55:06.154Z,101389.19
2023-04-19T20:57:34.493Z,101382.22
2023-04-19T21:00:02.745Z,101378.75
2023-04-19T21:02:30.090Z,101372.66
2023-04-19T21:04:57.323Z,101370.91
2023-04-19T21:07:24.598Z,101364.81
2023-04-19T21:09:51.830Z,101371.72
2023-04-19T21:12:19.032Z,101360.34
2023-04-19T21:14:49.258Z,101370.75
2023-04-19T21:17:16.736Z,101376.81
2023-04-19T21:19:44.079Z,101376.81
2023-04-19T21:22:11.320Z,101381.19
2023-04-19T21:24:38.549Z,101382.91
2023-04-19T21:27:05.968Z,101392.59
2023-04-19T21:29:33.489Z,101390.88
2023-04-19T21:32:01.031Z,101390.81
2023-04-19T21:34:28.532Z,101386.50
2023-04-19T21:36:55.919Z,101387.41
2023-04-19T21:39:23.141Z,101390.03
2023-04-19T21:41:50.581Z,101389.13
2023-04-19T21:44:17.756Z,101387.44
2023-04-19T21:46:44.979Z,101388.34
2023-04-19T21:49:12.179Z,101379.56
2023-04-19T21:51:39.421Z,101384.69
2023-04-19T21:54:06.729Z,101385.53
2023-04-19T21:56:34.107Z,101385.66
2023-04-19T21:59:02.302Z,101385.66
2023-04-19T22:01:29.495Z,101390.13
2023-04-19T22:03:57.164Z,101397.16
2023-04-19T22:06:24.705Z,101396.25
2023-04-19T22:08:52.329Z,101390.13
2023-04-19T22:11:20.040Z,101397.91
2023-04-19T22:13:47.282Z,101397.06
2023-04-19T22:16:42.284Z,101395.25
2023-04-19T22:19:10.782Z,101397.03
2023-04-19T22:21:38.124Z,101395.25
2023-04-19T22:24:05.899Z,101383.88
2023-04-19T22:26:33.070Z,101381.19
2023-04-19T22:29:00.318Z,101382.91
2023-04-19T22:31:27.917Z,101387.28
2023-04-19T22:33:55.424Z,101380.31
2023-04-19T22:36:22.848Z,101369.00
2023-04-19T22:38:50.187Z,101381.19
2023-04-19T22:41:17.416Z,101381.19
2023-04-19T22:43:45.740Z,101383.84
2023-04-19T22:46:13.287Z,101380.38
2023-04-19T22:48:40.821Z,101375.97
2023-04-19T22:51:08.073Z,101378.66
2023-04-19T22:53:37.282Z,101380.50
2023-04-19T22:56:05.117Z,101372.66
2023-04-19T22:58:32.575Z,101369.97
2023-04-19T23:00:59.868Z,101371.66
2023-04-19T23:03:27.866Z,101368.97
2023-04-19T23:05:56.092Z,101375.91
2023-04-19T23:08:24.966Z,101377.66
2023-04-19T23:10:52.228Z,101379.44
2023-04-19T23:13:19.667Z,101369.84
2023-04-19T23:15:50.660Z,101370.72
2023-04-19T23:18:18.345Z,101370.75
2023-04-19T23:20:45.657Z,101368.25
2023-04-19T23:23:12.946Z,101363.91
2023-04-19T23:25:40.274Z,101363.88
2023-04-19T23:28:07.462Z,101372.66
2023-04-19T23:30:34.640Z,101360.50
2023-04-19T23:33:02.301Z,101363.88
2023-04-19T23:35:31.598Z,101361.19
2023-04-19T23:37:59.510Z,101355.06
2023-04-19T23:40:27.753Z,101357.78
2023-04-19T23:42:54.963Z,101367.34
2023-04-19T23:45:22.454Z,101357.78
2023-04-19T23:47:50.077Z,101351.72
2023-04-19T23:50:17.439Z,101352.59
2023-04-19T23:52:44.789Z,101354.41
2023-04-19T23:55:12.558Z,101347.41
2023-04-19T23:57:39.945Z,101348.19
